Time;durP1;ratioP1;P1;durP2;ratioP2;P2;SDS_P1;SDS_P2;PMS_P1;PMS_P2;Temp;Humidity;BMP_temperature;BMP_pressure;BME280_temperature;BME280_humidity;BME280_pressure;Samples;Min_cycle;Max_cycle;Signal;HPM_P1;HPM_P2
2021/03/26 00:00:52;;;;;;;15.00;11.17;;;9.50;99.90;;;;;;4975810;28;20851;-77
2021/03/26 00:03:20;;;;;;;11.80;9.90;;;9.50;99.90;;;;;;4975054;28;20424;-78
2021/03/26 00:05:48;;;;;;;16.20;11.00;;;9.50;99.90;;;;;;4979910;28;20857;-78
2021/03/26 00:08:15;;;;;;;14.07;11.53;;;9.40;99.90;;;;;;4974891;28;20970;-77
2021/03/26 00:10:41;;;;;;;17.70;13.43;;;9.20;99.90;;;;;;4974679;28;20420;-78
2021/03/26 00:13:07;;;;;;;20.67;14.70;;;9.10;99.90;;;;;;4974926;28;20757;-77
2021/03/26 00:15:34;;;;;;;21.90;15.57;;;8.90;99.90;;;;;;4974995;28;21018;-77
2021/03/26 00:18:00;;;;;;;25.50;16.47;;;8.90;99.90;;;;;;4975211;28;20466;-77
2021/03/26 00:20:26;;;;;;;22.47;16.90;;;8.80;99.90;;;;;;4987533;28;20863;-77
2021/03/26 00:22:51;;;;;;;26.20;16.77;;;8.80;99.90;;;;;;4984421;28;20192;-77
2021/03/26 00:25:17;;;;;;;26.33;15.00;;;8.80;99.90;;;;;;4979832;28;20192;-77
2021/03/26 00:27:43;;;;;;;22.47;15.13;;;8.90;99.90;;;;;;4973993;28;20185;-77
2021/03/26 00:30:12;;;;;;;20.70;16.13;;;8.80;99.90;;;;;;4979002;28;20221;-78
2021/03/26 00:32:39;;;;;;;28.90;17.00;;;8.80;99.90;;;;;;4986674;28;20243;-77
2021/03/26 00:35:08;;;;;;;25.83;17.30;;;8.80;99.90;;;;;;4980853;28;20433;-77
2021/03/26 00:37:34;;;;;;;25.50;16.70;;;8.70;99.90;;;;;;4979017;28;20433;-77
2021/03/26 00:39:59;;;;;;;27.13;16.23;;;8.80;99.90;;;;;;4973894;28;20448;-77
2021/03/26 00:42:25;;;;;;;28.53;17.63;;;8.80;99.90;;;;;;4975273;28;20173;-78
2021/03/26 00:44:50;;;;;;;24.47;17.87;;;8.70;99.90;;;;;;5008758;28;20255;-76
2021/03/26 00:47:16;;;;;;;22.30;16.80;;;8.70;99.90;;;;;;4982702;28;20281;-78
2021/03/26 00:49:41;;;;;;;22.27;16.33;;;8.60;99.90;;;;;;4988238;28;20204;-78
2021/03/26 00:52:07;;;;;;;26.13;15.90;;;8.60;99.90;;;;;;4982553;28;20185;-79
2021/03/26 00:54:33;;;;;;;24.43;17.10;;;8.60;99.90;;;;;;4977387;28;20227;-78
2021/03/26 00:56:59;;;;;;;24.33;18.23;;;8.60;99.90;;;;;;4977482;28;20448;-78
2021/03/26 00:59:24;;;;;;;21.70;16.50;;;8.60;99.90;;;;;;4982649;28;20206;-76
2021/03/26 01:01:50;;;;;;;27.17;17.93;;;8.60;99.90;;;;;;4979033;28;20174;-78
2021/03/26 01:04:16;;;;;;;27.43;17.03;;;8.70;99.90;;;;;;4983486;28;20678;-77
2021/03/26 01:06:41;;;;;;;22.67;16.53;;;8.70;99.90;;;;;;4978430;28;20432;-77
2021/03/26 01:09:07;;;;;;;29.37;18.07;;;8.70;99.90;;;;;;4981419;28;20201;-77
2021/03/26 01:11:36;;;;;;;32.70;19.93;;;8.80;99.90;;;;;;4990115;28;20204;-77
2021/03/26 01:14:05;;;;;;;27.40;19.40;;;8.70;99.90;;;;;;4974077;28;20485;-78
2021/03/26 01:16:30;;;;;;;26.37;19.80;;;8.70;99.90;;;;;;4977378;28;20448;-78
2021/03/26 01:18:56;;;;;;;26.37;19.47;;;8.70;99.90;;;;;;4973883;28;20464;-78
2021/03/26 01:21:29;;;;;;;31.83;21.70;;;8.60;99.90;;;;;;4978121;28;20428;-77
2021/03/26 01:23:55;;;;;;;45.23;19.77;;;8.70;99.90;;;;;;4984933;28;20231;-76
2021/03/26 01:26:21;;;;;;;31.90;21.10;;;8.70;99.90;;;;;;4985192;28;20436;-77
2021/03/26 01:28:47;;;;;;;29.40;20.50;;;8.60;99.90;;;;;;4984237;28;20452;-77
2021/03/26 01:31:13;;;;;;;30.20;21.70;;;8.70;99.90;;;;;;4985071;28;20183;-78
2021/03/26 01:33:38;;;;;;;29.23;21.10;;;8.60;99.90;;;;;;4986886;28;20436;-76
2021/03/26 01:36:05;;;;;;;27.70;21.70;;;8.70;99.90;;;;;;4975898;28;20425;-76
2021/03/26 01:38:30;;;;;;;27.87;20.37;;;8.70;99.90;;;;;;4985480;28;20201;-77
2021/03/26 01:41:02;;;;;;;30.53;22.53;;;8.60;99.90;;;;;;4978165;28;20571;-78
2021/03/26 01:43:36;;;;;;;32.27;23.70;;;8.60;99.90;;;;;;4970958;28;20709;-78
2021/03/26 01:46:02;;;;;;;34.73;22.40;;;8.50;99.90;;;;;;4988708;28;21218;-78
2021/03/26 01:48:35;;;;;;;29.70;22.07;;;8.50;99.90;;;;;;4980164;28;20452;-77
2021/03/26 01:51:06;;;;;;;39.40;23.83;;;8.60;99.90;;;;;;4984660;28;20434;-78
2021/03/26 01:53:31;;;;;;;33.50;23.50;;;8.60;99.90;;;;;;4974231;28;20440;-78
2021/03/26 01:55:59;;;;;;;29.50;23.10;;;8.60;99.90;;;;;;4975572;28;20555;-79
2021/03/26 01:58:29;;;;;;;37.47;23.73;;;8.40;99.90;;;;;;4972784;28;20732;-77
2021/03/26 02:00:58;;;;;;;33.30;23.33;;;8.50;99.90;;;;;;4972851;28;20424;-77
2021/03/26 02:03:43;;;;;;;32.00;23.13;;;8.40;99.90;;;;;;4973282;28;20780;-77
2021/03/26 02:06:27;;;;;;;29.03;22.60;;;8.50;99.90;;;;;;4971062;28;20551;-78
2021/03/26 02:08:59;;;;;;;35.20;24.30;;;8.60;99.90;;;;;;4972654;28;20441;-77
2021/03/26 02:11:34;;;;;;;34.00;23.30;;;8.50;99.90;;;;;;4972743;28;20409;-77
2021/03/26 02:14:04;;;;;;;32.13;22.10;;;8.60;99.90;;;;;;4972457;28;20941;-77
2021/03/26 02:16:30;;;;;;;32.90;23.27;;;8.60;99.90;;;;;;4977527;28;20922;-78
2021/03/26 02:18:55;;;;;;;33.90;21.40;;;8.70;99.90;;;;;;4974907;28;20483;-78
2021/03/26 02:21:30;;;;;;;33.50;23.53;;;8.80;99.90;;;;;;4983089;28;20193;-78
2021/03/26 02:24:00;;;;;;;33.70;22.53;;;8.90;99.90;;;;;;4984299;28;20545;-78
2021/03/26 02:26:33;;;;;;;31.20;22.27;;;9.00;99.90;;;;;;4975061;28;20864;-78
2021/03/26 02:28:59;;;;;;;26.10;20.03;;;8.90;99.90;;;;;;4972556;28;20540;-78
2021/03/26 02:31:26;;;;;;;32.80;21.03;;;8.90;99.90;;;;;;4972773;28;20417;-78
2021/03/26 02:33:52;;;;;;;28.60;19.50;;;8.90;99.90;;;;;;4972931;28;20460;-78
2021/03/26 02:36:17;;;;;;;27.23;21.37;;;8.60;99.90;;;;;;4972041;28;20460;-78
2021/03/26 02:38:57;;;;;;;24.63;19.90;;;8.50;99.90;;;;;;4972763;28;20220;-76
2021/03/26 02:41:39;;;;;;;29.40;21.17;;;8.60;99.90;;;;;;4997639;28;20260;-77
2021/03/26 02:44:13;;;;;;;28.43;20.40;;;8.50;99.90;;;;;;4977814;28;20466;-77
2021/03/26 02:47:00;;;;;;;31.93;22.40;;;8.40;99.90;;;;;;4953596;29;20405;-76
2021/03/26 02:49:47;;;;;;;31.07;20.33;;;8.20;99.90;;;;;;4964745;28;20460;-77
2021/03/26 02:52:27;;;;;;;30.00;20.80;;;8.20;99.90;;;;;;4976516;28;20432;-77
2021/03/26 02:54:59;;;;;;;35.80;23.10;;;8.00;99.90;;;;;;4972847;28;20926;-77
2021/03/26 02:57:35;;;;;;;34.93;25.27;;;7.90;99.90;;;;;;4973981;28;20443;-78
2021/03/26 03:00:25;;;;;;;32.33;22.13;;;7.90;99.90;;;;;;4976297;28;20460;-78
2021/03/26 03:02:54;;;;;;;36.93;21.70;;;7.90;99.90;;;;;;4973524;28;20451;-77
2021/03/26 03:05:20;;;;;;;34.20;22.23;;;7.90;99.90;;;;;;4971396;28;20416;-77
2021/03/26 03:07:52;;;;;;;44.83;23.87;;;7.80;99.90;;;;;;4972779;28;20401;-77
2021/03/26 03:10:40;;;;;;;31.03;22.73;;;7.90;99.90;;;;;;4973353;28;20778;-78
2021/03/26 03:13:18;;;;;;;36.93;22.57;;;7.80;99.90;;;;;;4977127;28;20500;-78
2021/03/26 03:15:49;;;;;;;36.50;24.13;;;7.80;99.90;;;;;;4975429;28;20463;-78
2021/03/26 03:18:25;;;;;;;36.43;23.73;;;7.70;99.90;;;;;;4974744;28;20469;-78
2021/03/26 03:21:09;;;;;;;39.93;24.73;;;7.70;99.90;;;;;;4976290;28;20417;-77
2021/03/26 03:23:46;;;;;;;32.10;22.17;;;7.60;99.90;;;;;;4976610;28;20428;-77
2021/03/26 03:26:26;;;;;;;40.50;24.13;;;7.60;99.90;;;;;;4976540;28;20397;-78
2021/03/26 03:29:06;;;;;;;32.07;23.30;;;7.60;99.90;;;;;;4979508;28;20444;-78
2021/03/26 03:31:52;;;;;;;31.53;24.40;;;7.60;99.90;;;;;;4978945;28;20787;-78
2021/03/26 03:34:36;;;;;;;35.83;24.20;;;7.50;99.90;;;;;;5010504;28;20448;-78
2021/03/26 03:37:32;;;;;;;36.27;25.40;;;7.40;99.90;;;;;;4975224;28;20421;-78
2021/03/26 03:40:25;;;;;;;42.20;26.40;;;7.30;99.90;;;;;;4974955;28;20466;-78
2021/03/26 03:43:18;;;;;;;37.60;24.70;;;7.30;99.90;;;;;;5006683;28;20421;-78
2021/03/26 03:45:57;;;;;;;47.30;26.47;;;7.40;99.90;;;;;;4980180;28;20528;-78
2021/03/26 03:49:03;;;;;;;48.37;26.20;;;7.30;99.90;;;;;;4979538;28;20437;-78
2021/03/26 03:51:52;;;;;;;43.23;25.57;;;7.40;99.90;;;;;;4975574;28;20428;-78
2021/03/26 03:54:26;;;;;;;41.33;24.77;;;7.40;99.90;;;;;;4979354;28;20426;-78
2021/03/26 03:57:06;;;;;;;37.00;24.57;;;7.50;99.90;;;;;;4966595;28;20441;-77
2021/03/26 03:59:52;;;;;;;39.43;25.03;;;7.50;99.90;;;;;;4982962;28;20499;-78
2021/03/26 04:02:44;;;;;;;40.03;25.17;;;7.60;99.90;;;;;;4978894;28;20416;-78
2021/03/26 04:05:26;;;;;;;38.60;23.53;;;7.60;99.90;;;;;;4960024;28;20418;-78
2021/03/26 04:08:02;;;;;;;36.70;23.80;;;7.60;99.90;;;;;;4975149;28;20448;-77
2021/03/26 04:10:31;;;;;;;33.10;24.00;;;7.60;99.90;;;;;;4978385;28;20424;-77
2021/03/26 04:13:05;;;;;;;37.07;24.30;;;7.60;99.90;;;;;;4986139;28;20982;-78
2021/03/26 04:15:36;;;;;;;35.93;23.37;;;7.60;99.90;;;;;;4978888;28;20436;-78
2021/03/26 04:18:04;;;;;;;36.03;23.20;;;7.60;99.90;;;;;;5009873;28;20511;-76
2021/03/26 04:20:54;;;;;;;35.67;23.57;;;7.60;99.90;;;;;;4978962;28;20436;-78
2021/03/26 04:23:26;;;;;;;38.07;22.50;;;7.60;99.90;;;;;;5010213;28;20520;-78
2021/03/26 04:26:18;;;;;;;34.13;22.90;;;7.60;99.90;;;;;;4978541;28;20496;-76
2021/03/26 04:29:02;;;;;;;36.50;24.80;;;7.70;99.90;;;;;;4976874;28;20814;-78
2021/03/26 04:31:33;;;;;;;32.67;23.10;;;7.60;99.90;;;;;;4977026;28;20428;-78
2021/03/26 04:33:59;;;;;;;40.40;25.37;;;7.50;99.90;;;;;;4977959;28;20453;-78
2021/03/26 04:36:29;;;;;;;37.00;23.90;;;7.60;99.90;;;;;;4977378;28;20441;-78
2021/03/26 04:39:03;;;;;;;41.40;24.20;;;7.60;99.90;;;;;;4977806;28;20496;-78
2021/03/26 04:41:41;;;;;;;37.30;24.27;;;7.60;99.90;;;;;;4978321;28;20409;-78
2021/03/26 04:44:14;;;;;;;35.50;24.80;;;7.60;99.90;;;;;;4978373;28;20416;-78
2021/03/26 04:46:56;;;;;;;33.97;24.17;;;7.70;99.90;;;;;;4964882;28;20417;-78
2021/03/26 04:49:37;;;;;;;38.07;25.83;;;7.70;99.90;;;;;;4976961;28;20440;-78
2021/03/26 04:52:13;;;;;;;36.37;23.17;;;7.70;99.90;;;;;;4978180;28;20922;-78
2021/03/26 04:55:03;;;;;;;34.47;22.73;;;7.70;99.90;;;;;;4978265;28;20515;-77
2021/03/26 04:57:39;;;;;;;38.70;25.80;;;7.70;99.90;;;;;;4977199;28;20437;-77
2021/03/26 05:00:31;;;;;;;36.40;23.10;;;7.60;99.90;;;;;;4977200;28;20468;-78
2021/03/26 05:03:20;;;;;;;33.70;22.80;;;7.60;99.90;;;;;;4994181;28;20467;-78
2021/03/26 05:05:51;;;;;;;35.33;22.67;;;7.60;99.90;;;;;;4964606;28;20483;-78
2021/03/26 05:08:19;;;;;;;39.30;24.80;;;7.60;99.90;;;;;;4992900;28;20448;-77
2021/03/26 05:10:47;;;;;;;34.10;22.07;;;7.60;99.90;;;;;;4977329;28;20416;-78
2021/03/26 05:13:29;;;;;;;31.40;21.47;;;7.60;99.90;;;;;;4983812;28;20431;-78
2021/03/26 05:16:10;;;;;;;33.90;23.07;;;7.50;99.90;;;;;;4977866;28;20412;-77
2021/03/26 05:18:50;;;;;;;33.73;23.80;;;7.60;99.90;;;;;;4978191;28;20456;-76
2021/03/26 05:21:54;;;;;;;31.07;22.23;;;7.50;99.90;;;;;;4985878;28;20444;-78
2021/03/26 05:24:28;;;;;;;36.80;21.70;;;7.50;99.90;;;;;;4989557;28;20405;-77
2021/03/26 05:26:54;;;;;;;45.13;24.17;;;7.50;99.90;;;;;;4989390;28;20424;-78
2021/03/26 05:29:21;;;;;;;36.07;23.23;;;7.50;99.90;;;;;;4967144;28;20503;-76
2021/03/26 05:31:52;;;;;;;41.60;25.90;;;7.50;99.90;;;;;;4987573;28;20434;-78
2021/03/26 05:34:32;;;;;;;38.10;24.70;;;7.50;99.90;;;;;;4996273;28;20452;-78
2021/03/26 05:37:22;;;;;;;46.90;24.90;;;7.50;99.90;;;;;;5019561;28;20459;-77
2021/03/26 05:40:13;;;;;;;35.77;24.13;;;7.50;99.90;;;;;;4984598;28;20496;-79
2021/03/26 05:43:04;;;;;;;37.33;24.80;;;7.60;99.90;;;;;;4971305;28;20492;-79
2021/03/26 05:45:39;;;;;;;33.63;22.80;;;7.60;99.90;;;;;;4985854;28;20431;-76
2021/03/26 05:48:10;;;;;;;37.03;25.43;;;7.60;99.90;;;;;;5007843;28;20797;-78
2021/03/26 05:51:00;;;;;;;36.23;23.73;;;7.60;99.90;;;;;;4995604;28;20527;-79
2021/03/26 05:53:37;;;;;;;36.60;24.00;;;7.70;99.90;;;;;;4984349;28;20937;-79
2021/03/26 05:56:16;;;;;;;38.80;22.90;;;7.90;99.90;;;;;;4986305;28;20459;-78
2021/03/26 05:59:23;;;;;;;38.30;23.40;;;8.00;99.90;;;;;;4976265;28;20527;-78
2021/03/26 06:02:07;;;;;;;29.60;21.63;;;8.00;99.90;;;;;;4956502;28;20441;-78
2021/03/26 06:04:52;;;;;;;34.57;23.93;;;8.00;99.90;;;;;;4975337;28;20838;-79
2021/03/26 06:07:48;;;;;;;35.57;22.67;;;8.00;99.90;;;;;;4979341;28;20440;-79
2021/03/26 06:10:31;;;;;;;34.50;22.67;;;8.10;99.90;;;;;;4981715;28;20455;-78
2021/03/26 06:13:16;;;;;;;40.10;23.30;;;8.10;99.90;;;;;;4980705;28;20439;-78
2021/03/26 06:16:03;;;;;;;31.07;23.70;;;8.40;99.90;;;;;;4994751;28;20435;-78
2021/03/26 06:18:47;;;;;;;35.60;21.50;;;8.50;99.90;;;;;;5010107;28;20471;-78
2021/03/26 06:21:42;;;;;;;26.63;20.80;;;8.90;99.90;;;;;;4980580;28;20420;-77
2021/03/26 06:24:41;;;;;;;31.60;22.40;;;9.10;99.90;;;;;;4989156;28;20552;-78
2021/03/26 06:27:41;;;;;;;31.00;21.20;;;9.40;99.90;;;;;;4994602;28;20432;-79
2021/03/26 06:30:26;;;;;;;32.70;22.47;;;9.60;99.90;;;;;;4997369;28;20432;-78
2021/03/26 06:33:04;;;;;;;35.33;22.40;;;9.90;99.90;;;;;;4978821;28;20439;-78
2021/03/26 06:35:44;;;;;;;34.70;21.53;;;10.00;99.90;;;;;;4978592;28;20432;-78
2021/03/26 06:38:19;;;;;;;26.50;19.83;;;10.20;99.90;;;;;;4976381;28;20523;-78
2021/03/26 06:41:03;;;;;;;27.93;22.57;;;10.40;99.90;;;;;;4990103;28;20807;-76
2021/03/26 06:44:06;;;;;;;37.50;24.67;;;10.40;99.90;;;;;;4969263;28;20485;-77
2021/03/26 06:46:54;;;;;;;35.43;24.63;;;10.50;99.90;;;;;;4975776;28;20445;-78
2021/03/26 06:49:38;;;;;;;34.00;24.80;;;10.50;99.90;;;;;;4985484;28;20464;-78
2021/03/26 06:52:25;;;;;;;35.97;25.10;;;10.60;99.90;;;;;;4976374;28;20444;-76
2021/03/26 06:55:10;;;;;;;33.93;26.47;;;10.60;99.90;;;;;;4975073;28;20443;-76
2021/03/26 06:57:52;;;;;;;37.23;26.10;;;10.60;99.90;;;;;;4998001;28;20467;-79
2021/03/26 07:00:55;;;;;;;31.07;22.97;;;10.50;99.90;;;;;;4991178;28;20460;-78
2021/03/26 07:03:45;;;;;;;41.17;26.17;;;10.30;99.90;;;;;;4982817;28;20432;-78
2021/03/26 07:06:28;;;;;;;37.40;24.87;;;10.10;99.90;;;;;;4985378;28;20442;-78
2021/03/26 07:09:44;;;;;;;38.50;26.40;;;10.00;99.90;;;;;;4979393;28;20444;-78
2021/03/26 07:12:28;;;;;;;34.80;26.77;;;9.80;99.90;;;;;;4981279;28;20962;-79
2021/03/26 07:15:13;;;;;;;36.47;25.10;;;9.90;99.90;;;;;;4992781;28;20442;-76
2021/03/26 07:17:54;;;;;;;32.67;23.93;;;9.90;99.90;;;;;;4980345;28;20563;-79
2021/03/26 07:21:05;;;;;;;36.30;26.00;;;9.90;99.90;;;;;;4994467;28;20523;-76
2021/03/26 07:23:47;;;;;;;32.77;24.00;;;10.40;99.90;;;;;;4980590;28;20424;-78
2021/03/26 07:26:35;;;;;;;37.03;24.00;;;11.00;99.90;;;;;;4997927;28;20392;-74
2021/03/26 07:29:28;;;;;;;30.33;23.40;;;11.40;99.90;;;;;;4983475;28;20444;-77
2021/03/26 07:32:19;;;;;;;32.00;22.80;;;11.90;99.90;;;;;;4987986;28;21144;-78
2021/03/26 07:35:00;;;;;;;29.17;22.37;;;12.30;99.90;;;;;;5000015;28;21980;-78
2021/03/26 07:37:44;;;;;;;33.93;23.07;;;12.20;99.90;;;;;;5014138;28;20448;-78
2021/03/26 07:40:28;;;;;;;31.93;22.80;;;12.30;99.90;;;;;;4992730;28;20908;-77
2021/03/26 07:43:16;;;;;;;27.40;22.10;;;12.20;99.90;;;;;;4995897;28;20435;-78
2021/03/26 07:46:12;;;;;;;28.50;21.77;;;12.60;99.90;;;;;;4980170;28;20408;-78
2021/03/26 07:48:47;;;;;;;29.90;23.40;;;12.50;99.90;;;;;;4994900;28;20451;-78
2021/03/26 07:51:36;;;;;;;29.27;21.10;;;12.40;99.90;;;;;;4999370;28;20596;-78
2021/03/26 07:54:34;;;;;;;32.00;23.43;;;12.80;99.90;;;;;;4984167;28;20436;-78
2021/03/26 07:57:29;;;;;;;34.43;23.77;;;12.60;99.90;;;;;;5029221;28;21035;-78
2021/03/26 08:00:16;;;;;;;33.00;23.17;;;12.50;99.90;;;;;;4991820;28;20504;-78
2021/03/26 08:02:44;;;;;;;31.37;24.23;;;12.80;99.90;;;;;;4994078;28;20428;-77
2021/03/26 08:05:25;;;;;;;27.33;21.37;;;12.90;99.90;;;;;;4983946;28;20427;-77
2021/03/26 08:08:02;;;;;;;30.60;23.10;;;12.80;99.90;;;;;;4978285;28;20417;-78
2021/03/26 08:10:50;;;;;;;28.67;21.70;;;13.30;99.90;;;;;;4982720;28;20986;-78
2021/03/26 08:13:15;;;;;;;27.20;21.37;;;13.50;99.90;;;;;;4993295;28;20436;-77
2021/03/26 08:16:06;;;;;;;28.63;21.60;;;13.80;99.90;;;;;;4994358;28;20472;-76
2021/03/26 08:18:40;;;;;;;25.87;20.87;;;14.10;99.90;;;;;;4982320;28;20209;-77
2021/03/26 08:21:22;;;;;;;26.37;20.80;;;14.30;99.90;;;;;;4979920;28;20429;-76
2021/03/26 08:24:09;;;;;;;27.63;21.70;;;13.80;99.90;;;;;;4982645;28;20925;-78
2021/03/26 08:27:17;;;;;;;33.67;23.20;;;14.20;99.90;;;;;;5022690;28;20547;-78
2021/03/26 08:29:48;;;;;;;30.33;23.77;;;14.70;99.90;;;;;;4991111;28;20448;-78
2021/03/26 08:32:32;;;;;;;27.20;21.90;;;14.80;99.90;;;;;;4987458;28;20433;-77
2021/03/26 08:35:16;;;;;;;30.83;24.33;;;14.90;99.90;;;;;;4993100;28;20952;-77
2021/03/26 08:38:13;;;;;;;27.90;22.03;;;15.00;99.90;;;;;;4978028;28;20479;-76
2021/03/26 08:40:48;;;;;;;26.00;19.97;;;14.80;99.90;;;;;;4986816;28;20431;-77
2021/03/26 08:43:16;;;;;;;27.80;22.13;;;14.80;99.90;;;;;;5020028;28;20432;-77
2021/03/26 08:45:47;;;;;;;25.03;20.57;;;15.00;99.90;;;;;;4978604;28;20976;-76
2021/03/26 08:48:19;;;;;;;25.00;19.57;;;15.40;99.90;;;;;;4991831;28;20993;-77
2021/03/26 08:51:07;;;;;;;22.87;20.37;;;15.30;99.90;;;;;;4982664;28;20428;-77
2021/03/26 08:53:47;;;;;;;26.07;18.43;;;15.40;99.90;;;;;;4977576;28;20421;-77
2021/03/26 08:56:31;;;;;;;22.03;18.63;;;15.60;99.90;;;;;;4976133;28;20991;-77
2021/03/26 08:59:13;;;;;;;21.43;18.17;;;15.50;99.90;;;;;;4984274;28;20463;-76
2021/03/26 09:01:50;;;;;;;22.67;20.20;;;15.70;99.90;;;;;;4987360;28;20530;-77
2021/03/26 09:04:44;;;;;;;27.53;23.57;;;16.10;99.90;;;;;;4991953;28;20925;-77
2021/03/26 09:07:48;;;;;;;23.40;20.33;;;16.00;99.90;;;;;;4997470;28;20442;-78
2021/03/26 09:10:41;;;;;;;23.83;17.23;;;15.90;99.90;;;;;;4983914;28;20454;-77
2021/03/26 09:13:22;;;;;;;22.27;18.67;;;16.20;99.90;;;;;;4989275;28;20436;-75
2021/03/26 09:16:08;;;;;;;25.70;18.30;;;16.30;99.90;;;;;;4985763;28;20444;-78
2021/03/26 09:18:50;;;;;;;24.70;17.50;;;16.00;99.90;;;;;;4980730;28;20815;-74
2021/03/26 09:21:34;;;;;;;23.77;19.07;;;16.10;99.90;;;;;;4994844;28;20938;-75
2021/03/26 09:24:39;;;;;;;19.10;15.63;;;16.40;99.90;;;;;;4990281;28;20502;-74
2021/03/26 09:27:18;;;;;;;21.33;18.20;;;16.60;99.90;;;;;;4993315;28;20412;-75
2021/03/26 09:29:43;;;;;;;21.10;16.53;;;16.70;99.90;;;;;;4975547;28;21008;-74
2021/03/26 09:32:19;;;;;;;16.80;14.37;;;17.10;99.90;;;;;;4990096;28;20431;-74
2021/03/26 09:35:09;;;;;;;16.73;13.37;;;17.60;99.90;;;;;;4989225;28;20173;-74
2021/03/26 09:37:53;;;;;;;19.13;13.93;;;17.20;99.90;;;;;;4973071;28;20453;-76
2021/03/26 09:40:35;;;;;;;17.40;13.20;;;17.40;99.90;;;;;;4960107;28;20488;-76
2021/03/26 09:43:10;;;;;;;14.80;12.17;;;17.80;99.90;;;;;;4967597;28;20439;-76
2021/03/26 09:45:46;;;;;;;13.90;12.50;;;18.10;99.90;;;;;;4973376;28;20428;-75
2021/03/26 09:48:11;;;;;;;17.87;13.03;;;18.20;99.90;;;;;;4973062;28;20426;-75
2021/03/26 09:51:03;;;;;;;16.40;12.37;;;18.60;99.90;;;;;;4972433;28;20931;-74
2021/03/26 09:53:35;;;;;;;16.63;13.00;;;18.30;99.90;;;;;;4973567;28;20174;-74
2021/03/26 09:56:20;;;;;;;11.00;9.90;;;18.50;99.90;;;;;;4971413;28;20440;-73
2021/03/26 09:58:56;;;;;;;11.47;8.67;;;18.40;99.90;;;;;;4973122;28;20464;-74
2021/03/26 10:01:34;;;;;;;16.70;10.30;;;17.90;99.90;;;;;;4973328;28;20492;-74
2021/03/26 10:04:07;;;;;;;15.03;8.90;;;18.10;99.90;;;;;;4973489;28;20409;-73
2021/03/26 10:06:59;;;;;;;10.27;7.07;;;17.60;99.90;;;;;;4972932;28;20428;-73
2021/03/26 10:09:37;;;;;;;9.27;6.97;;;18.20;99.90;;;;;;4973055;28;20447;-73
2021/03/26 10:12:22;;;;;;;14.53;7.63;;;18.20;99.90;;;;;;4973416;28;20921;-74
2021/03/26 10:14:54;;;;;;;11.90;7.50;;;17.90;99.90;;;;;;4972189;28;20859;-73
2021/03/26 10:17:49;;;;;;;8.23;7.00;;;18.30;99.90;;;;;;4972597;28;20460;-73
2021/03/26 10:20:27;;;;;;;10.23;7.63;;;18.50;99.90;;;;;;4972311;28;20464;-73
2021/03/26 10:23:30;;;;;;;10.50;6.63;;;18.30;98.10;;;;;;4972788;28;21122;-74
2021/03/26 10:25:55;;;;;;;9.40;7.93;;;17.90;98.70;;;;;;4972707;28;20832;-73
2021/03/26 10:28:49;;;;;;;9.70;6.83;;;17.60;98.30;;;;;;4972357;28;20437;-73
2021/03/26 10:31:18;;;;;;;9.50;5.70;;;17.80;99.90;;;;;;4969977;28;20197;-74
2021/03/26 10:33:59;;;;;;;6.83;5.60;;;18.80;99.90;;;;;;4972534;28;20409;-74
2021/03/26 10:36:37;;;;;;;9.53;5.70;;;19.10;95.10;;;;;;4971258;28;20421;-74
2021/03/26 10:39:18;;;;;;;6.83;6.13;;;18.70;94.40;;;;;;4974202;28;20457;-75
2021/03/26 10:42:11;;;;;;;8.40;5.70;;;19.10;95.00;;;;;;4976840;28;20894;-75
2021/03/26 10:44:43;;;;;;;7.90;4.97;;;19.30;93.60;;;;;;4973327;28;20847;-73
2021/03/26 10:47:40;;;;;;;7.50;5.70;;;19.30;92.20;;;;;;4974450;28;20412;-73
2021/03/26 10:50:11;;;;;;;9.43;5.43;;;18.60;91.80;;;;;;4966310;28;20491;-74
2021/03/26 10:52:48;;;;;;;8.37;5.37;;;19.20;93.00;;;;;;4976586;28;20417;-74
2021/03/26 10:55:20;;;;;;;9.63;5.33;;;18.90;91.20;;;;;;4976042;28;20811;-74
2021/03/26 10:57:52;;;;;;;9.93;4.40;;;18.60;92.60;;;;;;4976276;28;20436;-74
2021/03/26 11:00:38;;;;;;;8.53;5.43;;;18.90;91.90;;;;;;4975874;28;21007;-74
2021/03/26 11:03:28;;;;;;;5.70;4.40;;;18.20;91.20;;;;;;4976113;28;20417;-75
2021/03/26 11:06:01;;;;;;;7.37;5.30;;;17.90;93.30;;;;;;4957148;29;20967;-74
2021/03/26 11:08:37;;;;;;;7.70;5.17;;;17.50;94.50;;;;;;4967161;28;20976;-73
2021/03/26 11:11:29;;;;;;;6.53;5.70;;;17.20;96.10;;;;;;4976538;28;20396;-74
2021/03/26 11:14:21;;;;;;;11.90;4.87;;;17.30;98.40;;;;;;4972787;28;20414;-75
2021/03/26 11:16:59;;;;;;;9.00;5.27;;;17.70;96.20;;;;;;4957423;29;20866;-74
2021/03/26 11:19:46;;;;;;;7.03;5.83;;;17.80;95.60;;;;;;4967484;28;20480;-74
2021/03/26 11:22:26;;;;;;;8.10;6.47;;;18.20;94.10;;;;;;4976678;28;20409;-74
2021/03/26 11:25:04;;;;;;;13.60;6.53;;;17.70;95.00;;;;;;4976269;28;20475;-74
2021/03/26 11:27:37;;;;;;;10.00;6.80;;;17.60;96.80;;;;;;4976582;28;20393;-73
2021/03/26 11:30:24;;;;;;;12.83;7.60;;;17.30;97.80;;;;;;4976176;28;20417;-74
2021/03/26 11:33:00;;;;;;;7.90;6.43;;;17.40;99.30;;;;;;4976736;28;20911;-74
2021/03/26 11:35:33;;;;;;;10.00;6.50;;;17.40;99.10;;;;;;4976087;28;20473;-73
2021/03/26 11:38:08;;;;;;;12.53;7.90;;;17.50;99.00;;;;;;4976008;28;20883;-73
2021/03/26 11:40:37;;;;;;;13.00;7.77;;;16.50;99.60;;;;;;4975488;28;20821;-74
2021/03/26 11:43:19;;;;;;;9.93;6.83;;;17.00;99.90;;;;;;4975115;28;20875;-74
2021/03/26 11:45:56;;;;;;;13.17;8.23;;;17.10;99.90;;;;;;4975814;28;20896;-74
2021/03/26 11:48:27;;;;;;;9.47;6.40;;;17.40;99.90;;;;;;4974332;28;20982;-74
2021/03/26 11:51:01;;;;;;;9.80;7.10;;;17.60;99.90;;;;;;4975094;28;20516;-73
2021/03/26 11:53:34;;;;;;;10.27;7.67;;;17.50;99.90;;;;;;4975397;28;20440;-74
2021/03/26 11:56:37;;;;;;;8.83;7.30;;;17.30;99.90;;;;;;4974663;28;20476;-74
2021/03/26 11:59:17;;;;;;;9.17;6.53;;;17.50;99.90;;;;;;4974678;28;20460;-74
2021/03/26 12:02:07;;;;;;;8.80;7.90;;;17.60;99.90;;;;;;4975037;28;20416;-74
2021/03/26 12:04:44;;;;;;;8.67;7.47;;;17.60;99.90;;;;;;4972933;28;20443;-73
2021/03/26 12:07:18;;;;;;;7.47;6.70;;;17.50;99.90;;;;;;4973685;28;20899;-74
2021/03/26 12:09:54;;;;;;;9.30;7.47;;;17.90;99.40;;;;;;4974567;28;20487;-74
2021/03/26 12:12:34;;;;;;;10.57;6.00;;;18.10;99.70;;;;;;4974466;28;20467;-73
2021/03/26 12:15:24;;;;;;;7.30;5.80;;;18.00;97.10;;;;;;4974970;28;20413;-75
2021/03/26 12:18:22;;;;;;;6.10;5.00;;;17.50;97.70;;;;;;4974708;28;20806;-73
2021/03/26 12:20:48;;;;;;;6.70;5.00;;;18.00;98.30;;;;;;4973354;28;20470;-74
2021/03/26 12:23:38;;;;;;;5.60;4.67;;;17.70;96.00;;;;;;4974265;28;20416;-74
2021/03/26 12:26:12;;;;;;;5.87;4.93;;;17.40;94.60;;;;;;4955508;28;20756;-79
2021/03/26 12:28:53;;;;;;;6.50;4.87;;;17.20;96.70;;;;;;4976026;28;20435;-78
2021/03/26 12:31:35;;;;;;;9.53;5.03;;;17.10;98.00;;;;;;4977302;28;20473;-80
2021/03/26 12:34:18;;;;;;;5.13;4.30;;;16.80;98.30;;;;;;4975529;28;20413;-80
2021/03/26 12:36:53;;;;;;;7.70;5.80;;;17.00;97.90;;;;;;4977459;28;20484;-80
2021/03/26 12:39:28;;;;;;;7.87;5.57;;;16.70;99.80;;;;;;4981726;28;20877;-79
2021/03/26 12:42:00;;;;;;;11.37;5.77;;;16.90;98.40;;;;;;4996220;28;20439;-79
2021/03/26 12:44:35;;;;;;;11.50;5.97;;;17.40;98.60;;;;;;5005686;28;20428;-80
2021/03/26 12:47:12;;;;;;;7.63;4.30;;;16.90;96.80;;;;;;4978430;28;20429;-79
2021/03/26 12:49:56;;;;;;;7.40;4.40;;;17.50;99.70;;;;;;4974331;28;20457;-76
2021/03/26 12:52:35;;;;;;;5.77;4.70;;;17.70;97.40;;;;;;4977133;28;20765;-76
2021/03/26 12:55:12;;;;;;;4.97;4.20;;;17.50;94.40;;;;;;4991488;28;20440;-77
2021/03/26 12:58:15;;;;;;;4.87;4.37;;;17.70;96.60;;;;;;4983055;28;20436;-79
2021/03/26 13:01:09;;;;;;;8.00;5.33;;;17.50;94.00;;;;;;4984715;28;20426;-79
2021/03/26 13:03:42;;;;;;;7.00;5.07;;;17.20;94.80;;;;;;4991734;28;20425;-80
2021/03/26 13:06:08;;;;;;;4.50;3.67;;;17.30;94.50;;;;;;4992534;28;20420;-79
2021/03/26 13:08:38;;;;;;;4.97;3.83;;;17.40;94.40;;;;;;4994325;28;20956;-79
2021/03/26 13:11:16;;;;;;;4.40;3.70;;;17.70;96.20;;;;;;4976426;28;20181;-79
2021/03/26 13:14:06;;;;;;;6.80;4.70;;;18.10;95.40;;;;;;4978031;28;20424;-79
2021/03/26 13:16:44;;;;;;;4.63;4.00;;;18.50;94.60;;;;;;4974161;28;20476;-79
2021/03/26 13:19:21;;;;;;;3.70;3.30;;;18.20;91.20;;;;;;4982436;28;20479;-80
2021/03/26 13:22:27;;;;;;;3.90;3.20;;;18.40;89.60;;;;;;4973868;28;20432;-79
2021/03/26 13:25:23;;;;;;;4.33;2.90;;;18.60;87.00;;;;;;4975227;28;20397;-78
2021/03/26 13:27:55;;;;;;;4.17;3.53;;;18.50;91.00;;;;;;4994976;28;20445;-78
2021/03/26 13:30:34;;;;;;;4.03;3.20;;;18.20;87.90;;;;;;5009944;28;20450;-78
2021/03/26 13:33:12;;;;;;;4.30;3.77;;;17.90;88.10;;;;;;4991108;28;20439;-78
2021/03/26 13:35:58;;;;;;;4.10;3.10;;;17.80;91.20;;;;;;4978351;28;20408;-78